Time;durP1;ratioP1;P1;durP2;ratioP2;P2;SDS_P1;SDS_P2;PMS_P1;PMS_P2;Temp;Humidity;BMP_temperature;BMP_pressure;BME280_temperature;BME280_humidity;BME280_pressure;Samples;Min_cycle;Max_cycle;Signal;HPM_P1;HPM_P2
2022/10/24 00:00:44;;;;;;;6.50;1.38;;;15.90;99.90;;;;;;5070847;28;20068;-51
2022/10/24 00:03:11;;;;;;;5.55;0.50;;;15.80;99.90;;;;;;5069259;28;20037;-50
2022/10/24 00:05:39;;;;;;;5.45;0.73;;;15.90;99.90;;;;;;5052502;28;20037;-51
2022/10/24 00:08:05;;;;;;;3.83;0.45;;;15.80;99.90;;;;;;5051999;28;20037;-51
2022/10/24 00:10:31;;;;;;;1.65;0.50;;;15.80;99.90;;;;;;5051642;28;20095;-52
2022/10/24 00:12:56;;;;;;;3.25;0.50;;;15.80;99.90;;;;;;5051600;28;20111;-51
2022/10/24 00:15:22;;;;;;;2.53;0.50;;;15.80;99.90;;;;;;5067970;28;20485;-53
2022/10/24 00:17:47;;;;;;;5.70;0.43;;;15.70;99.90;;;;;;5072257;28;20090;-52
2022/10/24 00:20:13;;;;;;;4.30;0.63;;;15.70;99.90;;;;;;5070103;28;20048;-53
2022/10/24 00:22:39;;;;;;;4.60;0.57;;;15.70;99.90;;;;;;5070791;28;20040;-52
2022/10/24 00:25:05;;;;;;;3.88;0.50;;;15.70;99.90;;;;;;5067373;28;20055;-51
2022/10/24 00:27:32;;;;;;;;;;;15.70;99.90;;;;;;5072146;28;20047;-51
2022/10/24 00:29:57;;;;;;;2.97;0.88;;;15.70;99.90;;;;;;5069332;28;19916;-52
2022/10/24 00:32:23;;;;;;;6.28;0.95;;;15.70;99.90;;;;;;5070731;28;20044;-50
2022/10/24 00:34:48;;;;;;;4.80;0.88;;;15.70;99.90;;;;;;5059736;28;20120;-53
2022/10/24 00:37:14;;;;;;;5.75;0.70;;;15.60;99.90;;;;;;5051847;28;20032;-52
2022/10/24 00:39:40;;;;;;;2.40;0.88;;;15.60;99.90;;;;;;5059264;28;20572;-55
2022/10/24 00:42:05;;;;;;;6.00;0.82;;;15.60;99.90;;;;;;5071228;28;20048;-53
2022/10/24 00:44:36;;;;;;;2.42;0.98;;;15.50;99.90;;;;;;5067059;28;20042;-53
2022/10/24 00:47:09;;;;;;;4.70;1.02;;;15.50;99.90;;;;;;5071440;28;20040;-51
2022/10/24 00:49:59;;;;;;;7.88;2.25;;;15.50;99.90;;;;;;5069361;28;20515;-51
2022/10/24 00:52:29;;;;;;;6.22;1.10;;;15.50;99.90;;;;;;5058128;28;20044;-54
2022/10/24 00:54:55;;;;;;;5.25;1.00;;;15.50;99.90;;;;;;5056144;28;20418;-54
2022/10/24 00:57:28;;;;;;;6.68;1.40;;;15.50;99.90;;;;;;5050995;28;20087;-53
2022/10/24 00:59:59;;;;;;;3.72;1.20;;;15.50;99.90;;;;;;5061965;28;20118;-55
2022/10/24 01:02:25;;;;;;;7.03;1.23;;;15.50;99.90;;;;;;5058833;28;20041;-52
2022/10/24 01:04:53;;;;;;;4.45;0.88;;;15.60;99.90;;;;;;5080258;28;20066;-51
2022/10/24 01:07:42;;;;;;;5.70;1.38;;;15.60;99.90;;;;;;5069776;28;20040;-52
2022/10/24 01:10:27;;;;;;;5.53;1.65;;;15.60;99.90;;;;;;5062344;28;20033;-54
2022/10/24 01:13:13;;;;;;;7.43;1.27;;;15.60;99.90;;;;;;5064358;28;20040;-54
2022/10/24 01:15:56;;;;;;;7.75;1.48;;;15.70;99.90;;;;;;5058401;28;20093;-53
2022/10/24 01:18:52;;;;;;;5.75;1.17;;;15.70;99.90;;;;;;5049509;28;20055;-55
2022/10/24 01:21:25;;;;;;;5.18;1.33;;;15.70;99.90;;;;;;5053877;28;20044;-52
2022/10/24 01:24:02;;;;;;;6.88;1.02;;;15.60;99.90;;;;;;5050584;28;20045;-53
2022/10/24 01:26:50;;;;;;;9.05;2.35;;;15.60;99.90;;;;;;5066794;28;20032;-52
2022/10/24 01:29:22;;;;;;;;;;;15.60;99.90;;;;;;5053055;28;20461;-51
2022/10/24 01:32:15;;;;;;;4.47;1.48;;;15.60;99.90;;;;;;5067448;28;20317;-51
2022/10/24 01:34:55;;;;;;;3.72;1.40;;;15.60;99.90;;;;;;5050655;28;20036;-52
2022/10/24 01:37:47;;;;;;;9.95;2.38;;;15.50;99.90;;;;;;5054594;28;20044;-50
2022/10/24 01:40:20;;;;;;;7.13;1.58;;;15.50;99.90;;;;;;5054485;28;20072;-51
2022/10/24 01:42:49;;;;;;;10.35;1.85;;;15.50;99.90;;;;;;5064540;28;20053;-51
2022/10/24 01:45:22;;;;;;;6.88;1.60;;;15.40;99.90;;;;;;5065944;28;20033;-51
2022/10/24 01:47:53;;;;;;;4.60;1.60;;;15.40;99.90;;;;;;5050539;28;20040;-51
2022/10/24 01:50:20;;;;;;;9.68;2.03;;;15.30;99.90;;;;;;5053359;28;20565;-51
2022/10/24 01:52:47;;;;;;;6.25;1.45;;;15.30;99.90;;;;;;5054665;28;20033;-50
2022/10/24 01:55:12;;;;;;;;;;;15.20;99.90;;;;;;5051406;28;20071;-50
2022/10/24 01:57:38;;;;;;;6.60;2.13;;;15.20;99.90;;;;;;5068641;28;19920;-50
2022/10/24 02:00:06;;;;;;;5.22;2.22;;;15.20;99.90;;;;;;5069081;28;20036;-51
2022/10/24 02:02:48;;;;;;;5.28;1.58;;;15.10;99.90;;;;;;5049646;28;20549;-50
2022/10/24 02:05:19;;;;;;;7.28;2.25;;;15.10;99.90;;;;;;5065703;28;20512;-50
2022/10/24 02:07:48;;;;;;;6.38;1.65;;;15.10;99.90;;;;;;5049705;28;20033;-51
2022/10/24 02:10:29;;;;;;;9.75;2.10;;;15.10;99.90;;;;;;5051201;28;20068;-54
2022/10/24 02:13:00;;;;;;;7.03;1.60;;;15.10;99.90;;;;;;5069964;28;20047;-52
2022/10/24 02:15:37;;;;;;;10.35;2.70;;;15.20;99.90;;;;;;5058992;28;20083;-50
2022/10/24 02:18:03;;;;;;;;;;;15.20;99.90;;;;;;5065764;28;20037;-50
2022/10/24 02:21:16;;;;;;;9.93;1.60;;;15.10;99.90;;;;;;5055834;28;19916;-50
2022/10/24 02:23:53;;;;;;;7.28;1.92;;;15.10;99.90;;;;;;5060874;28;20055;-50
2022/10/24 02:26:38;;;;;;;7.18;1.50;;;15.00;99.90;;;;;;5061612;28;20041;-50
2022/10/24 02:29:14;;;;;;;4.50;2.03;;;15.10;99.90;;;;;;5057045;28;20063;-50
2022/10/24 02:31:45;;;;;;;7.40;1.63;;;15.10;99.90;;;;;;5060493;28;20037;-50
2022/10/24 02:34:13;;;;;;;3.78;1.33;;;15.10;99.90;;;;;;5049480;28;20271;-50
2022/10/24 02:36:42;;;;;;;10.50;1.35;;;15.20;99.90;;;;;;5054083;28;20045;-52
2022/10/24 02:39:09;;;;;;;5.38;1.58;;;15.20;99.90;;;;;;5050339;28;20044;-51
2022/10/24 02:41:38;;;;;;;5.30;1.40;;;15.30;99.90;;;;;;5058287;28;20045;-53
2022/10/24 02:44:04;;;;;;;8.18;1.48;;;15.30;99.90;;;;;;5068288;28;20494;-53
2022/10/24 02:46:31;;;;;;;6.55;1.75;;;15.40;99.90;;;;;;5061529;28;20037;-50
2022/10/24 02:49:00;;;;;;;9.55;1.27;;;15.40;99.90;;;;;;5049342;28;20041;-51
2022/10/24 02:51:29;;;;;;;8.68;1.52;;;15.50;99.90;;;;;;5059281;28;20498;-53
2022/10/24 02:53:57;;;;;;;5.50;2.40;;;15.50;99.90;;;;;;5052131;28;20076;-53
2022/10/24 02:56:22;;;;;;;6.13;1.85;;;15.50;99.90;;;;;;5054131;28;20521;-50
2022/10/24 02:58:48;;;;;;;9.23;1.58;;;15.60;99.90;;;;;;5053560;28;20076;-53
2022/10/24 03:01:13;;;;;;;7.47;1.02;;;15.60;99.90;;;;;;5055953;28;20040;-52
2022/10/24 03:03:39;;;;;;;5.30;1.40;;;15.70;99.90;;;;;;5055244;28;20071;-51
2022/10/24 03:06:05;;;;;;;2.83;1.23;;;15.70;99.90;;;;;;5053876;28;20041;-51
2022/10/24 03:08:30;;;;;;;5.80;1.00;;;15.70;99.90;;;;;;5055875;28;20040;-51
2022/10/24 03:10:56;;;;;;;5.33;1.13;;;15.80;99.90;;;;;;5073128;28;20040;-51
2022/10/24 03:13:21;;;;;;;8.38;1.27;;;15.80;99.90;;;;;;5052795;28;20427;-53
2022/10/24 03:15:47;;;;;;;8.73;1.75;;;15.80;99.90;;;;;;5053091;28;20482;-53
2022/10/24 03:18:12;;;;;;;4.35;1.50;;;15.80;99.90;;;;;;5052361;28;20099;-53
2022/10/24 03:20:38;;;;;;;3.58;1.67;;;15.80;99.90;;;;;;5067065;28;20521;-53
2022/10/24 03:23:04;;;;;;;3.58;1.55;;;15.80;99.90;;;;;;5056818;28;20522;-54
2022/10/24 03:25:29;;;;;;;8.73;1.20;;;15.80;99.90;;;;;;5052748;28;20490;-54
2022/10/24 03:27:55;;;;;;;9.60;1.17;;;15.80;99.90;;;;;;5066539;28;20043;-53
2022/10/24 03:30:21;;;;;;;4.53;1.40;;;15.80;99.90;;;;;;5065189;28;20037;-52
2022/10/24 03:32:46;;;;;;;6.32;1.70;;;15.90;99.90;;;;;;5064866;28;20622;-54
2022/10/24 03:35:12;;;;;;;5.57;1.20;;;15.90;99.90;;;;;;5072432;28;20397;-54
2022/10/24 03:37:37;;;;;;;3.58;1.13;;;16.00;99.90;;;;;;5070965;28;20048;-53
2022/10/24 03:40:03;;;;;;;8.77;1.67;;;15.90;99.90;;;;;;5065058;28;20410;-54
2022/10/24 03:42:29;;;;;;;3.80;1.10;;;16.00;99.90;;;;;;5054777;28;20078;-53
2022/10/24 03:44:54;;;;;;;3.40;1.13;;;16.00;99.90;;;;;;5063124;28;20037;-54
2022/10/24 03:47:20;;;;;;;9.07;2.33;;;16.10;99.90;;;;;;5065724;28;20032;-51
2022/10/24 03:49:46;;;;;;;6.70;0.80;;;16.10;99.90;;;;;;5034375;28;20094;-52
2022/10/24 03:52:11;;;;;;;8.90;1.00;;;16.20;99.90;;;;;;5053337;28;20079;-50
2022/10/24 03:54:38;;;;;;;7.53;0.98;;;16.20;99.90;;;;;;5051675;28;20065;-50
2022/10/24 03:57:04;;;;;;;4.35;0.98;;;16.20;99.90;;;;;;5055171;28;20047;-50
2022/10/24 03:59:29;;;;;;;6.93;0.95;;;16.20;99.90;;;;;;5072104;28;20123;-50
2022/10/24 04:01:55;;;;;;;9.15;1.60;;;16.20;99.90;;;;;;5070754;28;20033;-51
2022/10/24 04:04:21;;;;;;;9.20;1.77;;;16.30;99.90;;;;;;5051255;28;20036;-54
2022/10/24 04:06:46;;;;;;;6.78;1.35;;;16.20;99.90;;;;;;5061669;28;20032;-50
2022/10/24 04:09:12;;;;;;;3.50;0.57;;;16.20;99.90;;;;;;5053739;28;20490;-50
2022/10/24 04:11:37;;;;;;;7.57;1.00;;;16.10;99.90;;;;;;5052294;28;20482;-51
2022/10/24 04:14:04;;;;;;;7.13;1.30;;;16.10;99.90;;;;;;5054129;28;20090;-54
2022/10/24 04:16:32;;;;;;;10.57;1.42;;;16.10;99.90;;;;;;5062748;28;20107;-51
2022/10/24 04:18:58;;;;;;;7.72;1.17;;;16.10;99.90;;;;;;5056013;28;20611;-50
2022/10/24 04:21:23;;;;;;;4.90;1.15;;;16.20;99.90;;;;;;5052179;28;20119;-50
2022/10/24 04:23:49;;;;;;;3.83;0.70;;;16.10;99.90;;;;;;5057974;28;20543;-51
2022/10/24 04:26:16;;;;;;;3.40;0.47;;;16.10;99.90;;;;;;5051761;28;20037;-50
2022/10/24 04:28:41;;;;;;;5.03;0.68;;;16.00;99.90;;;;;;5062945;28;20106;-50
2022/10/24 04:31:07;;;;;;;3.28;0.95;;;16.00;99.90;;;;;;5070312;28;20045;-51
2022/10/24 04:33:35;;;;;;;9.27;0.77;;;16.00;99.90;;;;;;5059724;28;20029;-53
2022/10/24 04:36:00;;;;;;;5.80;0.60;;;16.00;99.90;;;;;;5055426;28;20481;-52
2022/10/24 04:38:26;;;;;;;5.13;1.25;;;16.00;99.90;;;;;;5063015;28;20154;-52
2022/10/24 04:40:52;;;;;;;4.55;0.75;;;15.90;99.90;;;;;;5051057;28;20514;-51
2022/10/24 04:43:20;;;;;;;5.18;1.50;;;15.90;99.90;;;;;;5060167;28;20070;-51
2022/10/24 04:45:46;;;;;;;6.68;0.32;;;15.90;99.90;;;;;;5061960;28;20438;-52
2022/10/24 04:48:12;;;;;;;;;;;15.90;99.90;;;;;;5059978;28;20036;-51
2022/10/24 04:50:40;;;;;;;4.97;1.40;;;15.90;99.90;;;;;;5082001;28;19931;-50
2022/10/24 04:53:05;;;;;;;5.68;0.40;;;15.90;99.90;;;;;;5077723;28;20037;-50
2022/10/24 04:55:31;;;;;;;4.38;0.60;;;15.90;99.90;;;;;;5055350;28;20045;-52
2022/10/24 04:57:57;;;;;;;5.45;0.85;;;15.90;99.90;;;;;;5067038;28;20033;-51
2022/10/24 05:00:22;;;;;;;3.97;0.40;;;15.80;99.90;;;;;;5069313;28;20094;-51
2022/10/24 05:02:48;;;;;;;4.63;1.00;;;15.90;99.90;;;;;;5066476;28;20506;-51
2022/10/24 05:05:15;;;;;;;3.53;0.63;;;15.80;99.90;;;;;;5066445;28;20071;-51
2022/10/24 05:07:41;;;;;;;2.90;0.65;;;15.80;99.90;;;;;;5068895;28;20090;-53
2022/10/24 05:10:08;;;;;;;4.68;0.75;;;15.80;99.90;;;;;;5050725;28;20033;-50
2022/10/24 05:12:33;;;;;;;;;;;15.80;99.90;;;;;;5051184;28;20103;-50
2022/10/24 05:14:59;;;;;;;5.25;0.68;;;15.70;99.90;;;;;;5055318;28;19920;-54
2022/10/24 05:17:24;;;;;;;4.18;0.80;;;15.70;99.90;;;;;;5049392;28;20048;-51
2022/10/24 05:19:50;;;;;;;5.53;0.70;;;15.70;99.90;;;;;;5051092;28;20048;-51
2022/10/24 05:22:15;;;;;;;5.82;0.73;;;15.70;99.90;;;;;;5050258;28;20040;-51
2022/10/24 05:24:41;;;;;;;7.68;0.95;;;15.60;99.90;;;;;;5051526;28;20116;-54
2022/10/24 05:27:06;;;;;;;3.15;0.68;;;15.60;99.90;;;;;;5050857;28;20117;-52
2022/10/24 05:29:32;;;;;;;5.90;0.90;;;15.60;99.90;;;;;;5064736;28;20047;-50
2022/10/24 05:31:58;;;;;;;1.90;0.40;;;15.60;99.90;;;;;;5068509;28;20298;-51
2022/10/24 05:34:23;;;;;;;4.43;0.75;;;15.60;99.90;;;;;;5065507;28;20047;-52
2022/10/24 05:36:49;;;;;;;6.78;0.90;;;15.60;99.90;;;;;;5063730;28;20529;-52
2022/10/24 05:39:14;;;;;;;7.72;0.88;;;15.50;99.90;;;;;;5070108;28;20501;-53
2022/10/24 05:41:40;;;;;;;1.55;0.50;;;15.60;99.90;;;;;;5070711;28;20033;-54
2022/10/24 05:44:05;;;;;;;7.32;1.17;;;15.50;99.90;;;;;;5049830;28;20037;-52
2022/10/24 05:46:31;;;;;;;2.67;0.60;;;15.50;99.90;;;;;;5067284;28;20040;-52
2022/10/24 05:48:57;;;;;;;2.95;0.57;;;15.50;99.90;;;;;;5070513;28;20094;-52
2022/10/24 05:51:22;;;;;;;4.83;0.47;;;15.50;99.90;;;;;;5070266;28;20064;-54
2022/10/24 05:53:48;;;;;;;2.70;0.52;;;15.50;99.90;;;;;;5070189;28;20278;-53
2022/10/24 05:56:13;;;;;;;4.28;0.50;;;15.40;99.90;;;;;;5057860;28;20130;-54
2022/10/24 05:58:39;;;;;;;6.60;0.70;;;15.40;99.90;;;;;;5059818;28;20040;-53
2022/10/24 06:01:04;;;;;;;8.25;1.25;;;15.40;99.90;;;;;;5069173;28;20048;-54
2022/10/24 06:03:30;;;;;;;10.13;0.57;;;15.40;99.90;;;;;;5068604;28;20123;-53
2022/10/24 06:05:55;;;;;;;6.95;0.65;;;15.40;99.90;;;;;;5064630;28;20214;-54
2022/10/24 06:08:21;;;;;;;4.70;0.73;;;15.40;99.90;;;;;;5050051;28;20099;-53
2022/10/24 06:10:50;;;;;;;3.95;0.52;;;15.40;99.90;;;;;;5057953;28;20036;-55
2022/10/24 06:13:17;;;;;;;7.57;0.60;;;15.40;99.90;;;;;;5069501;28;20044;-54
2022/10/24 06:15:43;;;;;;;5.18;1.30;;;15.40;99.90;;;;;;5065000;28;20044;-54
2022/10/24 06:18:09;;;;;;;5.72;0.40;;;15.40;99.90;;;;;;5050078;28;20041;-53
2022/10/24 06:20:35;;;;;;;2.65;1.02;;;15.40;99.90;;;;;;5049944;28;20048;-51
2022/10/24 06:23:01;;;;;;;7.22;0.88;;;15.40;99.90;;;;;;5049322;28;20080;-51
2022/10/24 06:25:26;;;;;;;7.43;1.23;;;15.40;99.90;;;;;;5049779;28;20073;-50
2022/10/24 06:27:55;;;;;;;2.97;0.60;;;15.50;99.90;;;;;;5052214;28;20048;-51
2022/10/24 06:30:20;;;;;;;8.85;1.35;;;15.50;99.90;;;;;;5053262;28;20043;-50
2022/10/24 06:32:46;;;;;;;6.97;0.57;;;15.50;99.90;;;;;;5053794;28;20041;-51
2022/10/24 06:35:13;;;;;;;8.93;0.70;;;15.50;99.90;;;;;;5059515;28;20304;-50
2022/10/24 06:37:39;;;;;;;5.70;0.70;;;15.50;99.90;;;;;;5060331;28;20354;-50
2022/10/24 06:40:05;;;;;;;3.20;0.47;;;15.50;99.90;;;;;;5071612;28;20043;-51
2022/10/24 06:42:30;;;;;;;3.85;0.70;;;15.50;99.90;;;;;;5055841;28;20041;-51
2022/10/24 06:44:56;;;;;;;3.53;0.40;;;15.50;99.90;;;;;;5061877;28;20521;-50
2022/10/24 06:47:21;;;;;;;9.43;1.73;;;15.50;99.90;;;;;;5060320;28;20394;-53
2022/10/24 06:49:47;;;;;;;7.10;0.80;;;15.50;99.90;;;;;;5053709;28;20127;-50
2022/10/24 06:52:14;;;;;;;4.70;0.63;;;15.60;99.90;;;;;;5055195;28;20033;-51
2022/10/24 06:54:40;;;;;;;3.58;0.47;;;15.70;99.90;;;;;;5058760;28;20041;-51
2022/10/24 06:57:06;;;;;;;7.93;0.70;;;15.80;99.90;;;;;;5061340;28;20037;-52
2022/10/24 06:59:31;;;;;;;3.53;0.75;;;16.00;99.90;;;;;;5052923;28;20548;-51
2022/10/24 07:01:57;;;;;;;4.07;0.40;;;16.10;99.90;;;;;;5069942;28;20041;-51
2022/10/24 07:04:23;;;;;;;6.78;0.77;;;16.30;99.90;;;;;;5060636;28;20047;-51
2022/10/24 07:06:49;;;;;;;4.63;0.70;;;16.60;99.90;;;;;;5057012;28;20449;-52
2022/10/24 07:09:14;;;;;;;8.60;0.50;;;16.90;99.90;;;;;;5064285;28;20037;-55
2022/10/24 07:11:40;;;;;;;4.10;0.70;;;17.00;99.90;;;;;;5067531;28;20107;-52
2022/10/24 07:14:08;;;;;;;3.97;0.47;;;17.10;99.90;;;;;;5061274;28;20076;-55
2022/10/24 07:16:33;;;;;;;2.83;0.40;;;17.40;99.90;;;;;;5052589;28;20056;-56
2022/10/24 07:18:59;;;;;;;3.08;0.45;;;17.40;99.90;;;;;;5060627;28;20042;-55
2022/10/24 07:21:29;;;;;;;4.45;0.80;;;17.20;99.90;;;;;;5059264;28;20616;-55
2022/10/24 07:23:56;;;;;;;7.85;1.15;;;17.00;99.90;;;;;;5062292;28;20044;-55
2022/10/24 07:26:24;;;;;;;11.60;1.35;;;17.20;99.90;;;;;;5063407;28;20064;-53
2022/10/24 07:28:53;;;;;;;7.13;0.85;;;17.30;99.90;;;;;;5066490;28;20058;-56
2022/10/24 07:31:24;;;;;;;3.60;0.68;;;17.30;99.90;;;;;;5049392;28;20555;-56
2022/10/24 07:33:51;;;;;;;6.80;0.75;;;17.20;99.90;;;;;;5055687;28;20044;-54
2022/10/24 07:36:23;;;;;;;5.78;0.55;;;17.10;99.90;;;;;;5054025;28;20514;-55
2022/10/24 07:38:51;;;;;;;7.70;0.40;;;17.00;99.90;;;;;;5051871;28;20041;-55
2022/10/24 07:41:17;;;;;;;5.38;1.08;;;17.00;99.90;;;;;;5056763;28;20124;-55
2022/10/24 07:43:43;;;;;;;2.90;0.45;;;16.90;99.90;;;;;;5066860;28;20036;-56
2022/10/24 07:46:12;;;;;;;4.20;0.40;;;16.80;99.90;;;;;;5059744;28;20078;-55
2022/10/24 07:48:41;;;;;;;3.85;0.52;;;16.90;99.90;;;;;;5054767;28;20048;-53
2022/10/24 07:51:12;;;;;;;6.45;0.77;;;17.00;99.90;;;;;;5055846;28;20089;-55
2022/10/24 07:53:39;;;;;;;5.18;0.50;;;17.00;99.90;;;;;;5058889;28;20379;-56
2022/10/24 07:56:08;;;;;;;5.53;0.60;;;17.00;99.90;;;;;;5059388;28;20410;-53
2022/10/24 07:58:37;;;;;;;5.85;0.55;;;17.00;99.90;;;;;;5047466;28;20049;-56
2022/10/24 08:01:08;;;;;;;3.22;0.40;;;16.90;99.90;;;;;;5056159;28;20116;-56
2022/10/24 08:03:35;;;;;;;5.53;0.88;;;16.80;99.90;;;;;;5055534;28;20514;-53
2022/10/24 08:06:03;;;;;;;;;;;16.80;99.90;;;;;;5061520;28;20159;-55
2022/10/24 08:08:29;;;;;;;9.05;0.75;;;16.80;99.90;;;;;;5057263;28;20425;-56
2022/10/24 08:10:54;;;;;;;6.45;0.50;;;16.80;99.90;;;;;;5059709;28;20136;-56
2022/10/24 08:13:20;;;;;;;3.20;0.50;;;16.90;99.90;;;;;;5056500;28;20331;-54
2022/10/24 08:15:45;;;;;;;15.50;1.05;;;16.80;99.90;;;;;;5052478;28;20045;-53
2022/10/24 08:18:11;;;;;;;8.52;0.75;;;16.80;99.90;;;;;;5054537;28;20036;-57
2022/10/24 08:20:36;;;;;;;6.78;0.73;;;16.80;99.90;;;;;;5048369;28;20032;-55
2022/10/24 08:23:02;;;;;;;8.48;0.85;;;16.90;99.90;;;;;;5049691;28;20098;-55
2022/10/24 08:25:27;;;;;;;3.53;0.85;;;17.00;99.90;;;;;;5050501;28;20245;-56
2022/10/24 08:27:53;;;;;;;4.47;0.63;;;17.10;99.90;;;;;;5046607;28;20037;-57
2022/10/24 08:30:19;;;;;;;7.30;0.88;;;17.20;99.90;;;;;;5052650;28;20061;-57
2022/10/24 08:32:45;;;;;;;6.22;0.73;;;17.20;99.90;;;;;;5050049;28;20049;-54
2022/10/24 08:35:16;;;;;;;8.43;0.55;;;17.40;99.90;;;;;;5052556;28;20048;-57
2022/10/24 08:37:42;;;;;;;6.43;0.50;;;17.50;99.90;;;;;;5052757;28;20064;-57
2022/10/24 08:40:14;;;;;;;7.60;0.93;;;17.50;99.90;;;;;;5050908;28;20387;-56
2022/10/24 08:42:40;;;;;;;6.30;0.85;;;17.50;99.90;;;;;;5053905;28;20072;-55
2022/10/24 08:45:14;;;;;;;7.32;0.75;;;17.50;99.90;;;;;;5057771;28;20401;-55
2022/10/24 08:47:55;;;;;;;8.07;0.70;;;17.50;99.90;;;;;;5058420;28;20032;-56
2022/10/24 08:50:23;;;;;;;2.25;0.40;;;17.50;99.90;;;;;;5048705;28;20119;-56
2022/10/24 08:53:08;;;;;;;7.60;0.90;;;17.40;99.90;;;;;;5045007;28;20525;-56
2022/10/24 08:55:41;;;;;;;10.82;0.90;;;17.20;99.90;;;;;;5054562;28;20041;-56
2022/10/24 08:58:13;;;;;;;5.45;0.60;;;17.20;99.90;;;;;;5053448;28;20047;-57
2022/10/24 09:00:45;;;;;;;9.32;0.90;;;17.10;99.90;;;;;;5055152;28;20048;-54
2022/10/24 09:03:30;;;;;;;4.82;0.40;;;17.10;99.90;;;;;;5054323;28;20041;-54
2022/10/24 09:06:01;;;;;;;7.30;1.00;;;17.10;99.90;;;;;;5052697;28;20040;-54
2022/10/24 09:09:10;;;;;;;8.07;1.13;;;17.20;99.90;;;;;;5052613;28;20042;-54
2022/10/24 09:12:12;;;;;;;8.25;1.10;;;17.30;99.90;;;;;;5010606;28;20125;-55
2022/10/24 09:14:40;;;;;;;7.68;1.05;;;17.40;99.90;;;;;;5010230;28;20045;-57
2022/10/24 09:17:28;;;;;;;6.32;1.45;;;17.30;99.90;;;;;;5011578;28;20041;-54
2022/10/24 09:19:56;;;;;;;6.38;0.50;;;17.20;99.90;;;;;;5004945;28;20045;-53
2022/10/24 09:22:25;;;;;;;10.60;0.95;;;17.10;99.90;;;;;;5006751;28;20041;-52
2022/10/24 09:25:04;;;;;;;6.07;0.57;;;17.00;99.90;;;;;;5006936;28;20124;-56
2022/10/24 09:27:34;;;;;;;4.40;0.40;;;17.00;99.90;;;;;;5010825;28;20056;-52
2022/10/24 09:30:00;;;;;;;13.27;1.23;;;17.00;99.90;;;;;;5007377;28;20037;-55
2022/10/24 09:32:29;;;;;;;4.47;0.40;;;17.20;99.90;;;;;;5012716;28;20080;-54
2022/10/24 09:35:04;;;;;;;7.00;0.63;;;17.40;99.90;;;;;;5013786;28;20045;-52
2022/10/24 09:37:39;;;;;;;8.13;0.65;;;17.50;99.90;;;;;;4999505;28;20038;-56
2022/10/24 09:40:10;;;;;;;9.55;1.00;;;17.60;99.90;;;;;;5006738;28;20311;-53
2022/10/24 09:42:37;;;;;;;6.80;0.57;;;17.50;99.90;;;;;;5011089;28;20092;-55
2022/10/24 09:45:37;;;;;;;7.18;0.57;;;17.50;99.90;;;;;;5020089;28;20052;-54
2022/10/24 09:48:14;;;;;;;4.57;0.68;;;17.50;99.90;;;;;;5046819;28;20282;-53
2022/10/24 09:50:42;;;;;;;6.43;0.82;;;17.40;99.90;;;;;;5047403;28;20041;-53
2022/10/24 09:53:30;;;;;;;5.20;0.70;;;17.30;99.90;;;;;;5050787;28;20068;-53
2022/10/24 09:55:59;;;;;;;7.05;1.10;;;17.20;99.90;;;;;;5054694;28;20036;-52
2022/10/24 09:58:31;;;;;;;8.93;1.15;;;17.20;99.90;;;;;;5055194;28;20068;-55
2022/10/24 10:01:04;;;;;;;8.90;1.00;;;17.10;99.90;;;;;;5048453;28;20462;-53
2022/10/24 10:03:31;;;;;;;7.57;0.50;;;17.10;99.90;;;;;;5049868;28;20121;-53
2022/10/24 10:05:59;;;;;;;4.55;0.95;;;17.10;99.90;;;;;;5054130;28;20069;-53
2022/10/24 10:08:30;;;;;;;6.88;0.88;;;17.10;99.90;;;;;;5046570;28;20087;-55
2022/10/24 10:11:00;;;;;;;2.95;0.57;;;17.00;99.90;;;;;;5052927;28;20044;-55
2022/10/24 10:13:27;;;;;;;5.60;0.40;;;17.00;99.90;;;;;;5048904;28;20087;-52
2022/10/24 10:15:55;;;;;;;7.97;0.82;;;17.00;99.90;;;;;;5057707;28;20494;-53
2022/10/24 10:18:23;;;;;;;9.55;0.98;;;17.00;99.90;;;;;;5050057;28;20086;-54
2022/10/24 10:21:04;;;;;;;4.50;0.77;;;16.90;99.90;;;;;;5055685;28;20036;-56
2022/10/24 10:23:33;;;;;;;4.10;0.68;;;16.90;99.90;;;;;;5046519;28;20277;-52
2022/10/24 10:26:09;;;;;;;4.80;0.45;;;16.90;99.90;;;;;;5049613;28;20033;-53
2022/10/24 10:28:42;;;;;;;3.22;0.98;;;16.90;99.90;;;;;;5050665;28;20041;-55
2022/10/24 10:31:09;;;;;;;3.13;0.45;;;16.90;99.90;;;;;;5049616;28;20033;-54
2022/10/24 10:33:49;;;;;;;3.97;0.50;;;16.90;99.90;;;;;;5046845;28;20060;-52
2022/10/24 10:36:26;;;;;;;3.63;0.55;;;16.90;99.90;;;;;;5053981;28;20270;-54
2022/10/24 10:39:23;;;;;;;3.58;0.45;;;16.90;99.90;;;;;;5052825;28;20311;-53
2022/10/24 10:41:55;;;;;;;4.67;0.40;;;16.80;99.90;;;;;;5049190;28;20118;-54
2022/10/24 10:44:36;;;;;;;6.63;1.10;;;16.90;99.90;;;;;;5050363;28;20036;-55
2022/10/24 10:47:34;;;;;;;4.78;0.55;;;16.80;99.90;;;;;;5051127;28;20044;-53
2022/10/24 10:50:00;;;;;;;8.32;0.70;;;16.70;99.90;;;;;;5045330;28;20512;-55
2022/10/24 10:52:31;;;;;;;3.72;0.60;;;16.70;99.90;;;;;;5047198;28;20406;-56
2022/10/24 10:54:57;;;;;;;3.10;0.50;;;16.70;99.90;;;;;;5051224;28;20041;-55
2022/10/24 10:57:35;;;;;;;2.83;0.70;;;16.70;99.90;;;;;;5057449;28;20048;-53
2022/10/24 11:00:21;;;;;;;5.75;0.68;;;16.70;99.90;;;;;;5051682;28;20040;-57
2022/10/24 11:03:06;;;;;;;3.22;0.38;;;16.80;99.90;;;;;;5049261;28;20037;-57
2022/10/24 11:05:41;;;;;;;5.00;1.05;;;16.70;99.90;;;;;;5049530;28;20508;-55
2022/10/24 11:08:46;;;;;;;6.72;0.20;;;16.80;99.90;;;;;;5052980;28;20037;-53
2022/10/24 11:11:21;;;;;;;9.43;0.40;;;16.80;99.90;;;;;;5056417;28;20543;-56
2022/10/24 11:13:56;;;;;;;6.20;0.57;;;16.70;99.90;;;;;;5047400;28;20123;-56
2022/10/24 11:16:25;;;;;;;2.97;0.32;;;16.70;99.90;;;;;;5049930;28;20517;-56
2022/10/24 11:18:56;;;;;;;5.50;0.65;;;16.80;99.90;;;;;;5049124;28;20300;-56
2022/10/24 11:21:24;;;;;;;9.65;0.60;;;16.80;99.90;;;;;;5049044;28;20598;-53
2022/10/24 11:24:14;;;;;;;5.68;0.60;;;16.90;99.90;;;;;;5049076;28;20039;-56
2022/10/24 11:26:44;;;;;;;4.10;0.70;;;16.80;99.90;;;;;;5054505;28;20394;-56
2022/10/24 11:29:35;;;;;;;4.45;0.60;;;16.90;99.90;;;;;;5054850;28;20032;-56
2022/10/24 11:32:24;;;;;;;2.45;0.43;;;16.90;99.90;;;;;;5050456;28;20521;-53
2022/10/24 11:35:15;;;;;;;4.60;0.40;;;16.80;99.90;;;;;;5054511;28;20396;-55
2022/10/24 11:37:44;;;;;;;5.72;0.52;;;16.80;99.90;;;;;;5055386;28;20139;-52
2022/10/24 11:40:13;;;;;;;3.40;0.77;;;16.80;99.90;;;;;;5052516;28;20043;-52
2022/10/24 11:43:05;;;;;;;3.60;0.30;;;17.00;99.90;;;;;;5063741;28;20460;-53
2022/10/24 11:45:53;;;;;;;3.90;0.60;;;17.20;99.90;;;;;;5067692;28;20028;-52
2022/10/24 11:48:26;;;;;;;3.50;0.55;;;17.50;99.90;;;;;;5059748;28;20032;-52
2022/10/24 11:51:13;;;;;;;5.45;0.50;;;17.70;99.90;;;;;;5049757;28;20486;-52
2022/10/24 11:53:51;;;;;;;5.20;0.30;;;17.90;99.90;;;;;;5055546;28;20494;-53
2022/10/24 11:56:38;;;;;;;4.72;0.32;;;18.00;99.90;;;;;;5058011;28;20036;-52
2022/10/24 11:59:06;;;;;;;6.00;0.43;;;17.90;99.90;;;;;;5055130;28;20039;-52
2022/10/24 12:01:57;;;;;;;9.20;0.80;;;17.80;99.90;;;;;;5054850;28;20051;-54
2022/10/24 12:04:37;;;;;;;4.90;0.45;;;17.70;99.90;;;;;;5047380;28;20116;-54
2022/10/24 12:07:30;;;;;;;4.38;0.50;;;17.80;99.90;;;;;;5061893;28;20071;-51
2022/10/24 12:10:33;;;;;;;3.65;0.50;;;17.70;99.90;;;;;;5047446;28;20052;-55
2022/10/24 12:13:22;;;;;;;2.95;0.52;;;17.70;99.90;;;;;;5047485;28;20045;-53
2022/10/24 12:16:14;;;;;;;5.03;0.50;;;17.60;99.90;;;;;;5053165;28;20048;-52
2022/10/24 12:18:59;;;;;;;8.05;0.77;;;17.50;99.90;;;;;;5064589;28;20858;-52
2022/10/24 12:21:33;;;;;;;4.43;0.50;;;17.50;99.90;;;;;;5057906;28;20438;-52
2022/10/24 12:24:00;;;;;;;1.35;0.22;;;17.40;99.90;;;;;;5066932;28;20405;-51
2022/10/24 12:26:31;;;;;;;4.40;0.65;;;17.40;99.90;;;;;;5067315;28;20103;-53
2022/10/24 12:29:02;;;;;;;6.50;0.32;;;17.30;99.90;;;;;;5058942;28;20112;-52
2022/10/24 12:31:30;;;;;;;4.90;0.65;;;17.30;99.90;;;;;;5053062;28;20036;-52
2022/10/24 12:34:14;;;;;;;3.22;0.40;;;17.30;99.90;;;;;;5061523;28;20048;-54
2022/10/24 12:37:03;;;;;;;5.60;0.40;;;17.20;99.90;;;;;;5063917;28;20123;-52
2022/10/24 12:39:36;;;;;;;3.72;0.30;;;17.20;99.90;;;;;;5046821;28;20053;-54
2022/10/24 12:42:02;;;;;;;3.22;0.47;;;17.20;99.90;;;;;;5058730;28;20083;-55
2022/10/24 12:44:30;;;;;;;;;;;17.20;99.90;;;;;;5066090;28;20060;-55
2022/10/24 12:46:56;;;;;;;2.13;0.30;;;17.10;99.90;;;;;;5066309;28;19916;-55
2022/10/24 12:49:32;;;;;;;2.42;0.52;;;17.10;99.90;;;;;;5067508;28;20092;-54
2022/10/24 12:52:18;;;;;;;4.68;0.32;;;17.00;99.90;;;;;;5066027;28;20617;-52
2022/10/24 12:54:44;;;;;;;5.68;0.47;;;17.00;99.90;;;;;;5066370;28;20048;-56
2022/10/24 12:57:12;;;;;;;6.15;0.52;;;17.00;99.90;;;;;;5066445;28;20101;-52
2022/10/24 12:59:44;;;;;;;2.88;0.28;;;17.00;99.90;;;;;;5063263;28;20041;-53
2022/10/24 13:02:10;;;;;;;4.93;0.52;;;17.00;99.90;;;;;;5053684;28;20033;-55
2022/10/24 13:04:58;;;;;;;1.20;0.20;;;17.00;99.90;;;;;;5054181;28;20498;-55
2022/10/24 13:07:35;;;;;;;2.70;0.40;;;16.90;99.90;;;;;;5053841;28;20282;-52